createdAt,value
2018-09-09T00:00:07.819Z,53.06
2018-09-09T00:05:17.523Z,53.48
2018-09-09T00:10:23.718Z,53.62
2018-09-09T00:15:26.994Z,53.68
2018-09-09T00:20:30.035Z,53.98
2018-09-09T00:25:33.335Z,53.62
2018-09-09T00:30:36.432Z,53.60
2018-09-09T00:35:51.707Z,53.71
2018-09-09T00:40:56.008Z,53.86
2018-09-09T00:45:59.029Z,54.11
2018-09-09T00:51:10.359Z,54.68
2018-09-09T00:56:18.438Z,54.97
2018-09-09T01:01:23.130Z,55.73
2018-09-09T01:06:26.179Z,55.92
2018-09-09T01:11:29.280Z,56.25
2018-09-09T01:16:32.497Z,56.81
2018-09-09T01:21:36.365Z,56.08
2018-09-09T01:26:43.553Z,56.42
2018-09-09T01:31:51.735Z,56.21
2018-09-09T01:36:56.262Z,56.46
2018-09-09T01:41:59.295Z,56.83
2018-09-09T01:47:04.386Z,57.16
2018-09-09T01:52:11.162Z,57.08
2018-09-09T01:57:19.416Z,56.69
2018-09-09T02:02:22.664Z,57.35
2018-09-09T02:07:25.734Z,57.88
2018-09-09T02:12:28.762Z,57.72
2018-09-09T02:17:32.198Z,58.58
2018-09-09T02:22:37.230Z,58.85
2018-09-09T02:27:42.450Z,59.51
2018-09-09T02:32:48.521Z,59.89
2018-09-09T02:37:52.483Z,60.25
2018-09-09T02:42:55.514Z,60.23
2018-09-09T02:47:58.539Z,60.13
2018-09-09T02:53:01.570Z,60.55
2018-09-09T02:58:04.746Z,60.38
2018-09-09T03:03:07.825Z,60.15
2018-09-09T03:08:15.380Z,60.41
2018-09-09T03:13:20.329Z,61.19
2018-09-09T03:18:24.306Z,61.29
2018-09-09T03:23:28.209Z,61.15
2018-09-09T03:28:32.026Z,61.11
2018-09-09T03:33:35.019Z,61.00
2018-09-09T03:38:41.298Z,61.00
2018-09-09T03:43:49.306Z,61.07
2018-09-09T03:48:54.287Z,61.56
2018-09-09T03:53:57.309Z,61.49
2018-09-09T03:59:00.562Z,61.48
2018-09-09T04:04:03.625Z,61.65
2018-09-09T04:09:12.127Z,61.66
2018-09-09T04:14:19.404Z,61.84
2018-09-09T04:19:23.985Z,61.44
2018-09-09T04:24:27.034Z,61.16
2018-09-09T04:29:30.030Z,60.63
2018-09-09T04:34:33.049Z,60.98
2018-09-09T04:39:36.186Z,61.01
2018-09-09T04:44:45.599Z,61.18
2018-09-09T04:49:53.653Z,60.99
2018-09-09T04:54:56.766Z,60.73
2018-09-09T04:59:59.808Z,60.94
2018-09-09T05:05:02.964Z,60.74
2018-09-09T05:10:06.143Z,60.78
2018-09-09T05:15:14.280Z,61.06
2018-09-09T05:20:20.242Z,60.86
2018-09-09T05:25:26.497Z,60.85
2018-09-09T05:30:30.904Z,60.82
2018-09-09T05:35:34.072Z,60.78
2018-09-09T05:40:45.144Z,61.24
2018-09-09T05:45:49.997Z,61.42
2018-09-09T05:50:53.110Z,61.06
2018-09-09T05:55:56.211Z,61.06
2018-09-09T06:00:59.418Z,60.86
2018-09-09T06:06:03.257Z,60.51
2018-09-09T06:11:08.156Z,59.95
2018-09-09T06:16:18.743Z,59.03
2018-09-09T06:21:23.838Z,57.55
2018-09-09T06:26:26.978Z,57.10
2018-09-09T06:31:30.091Z,57.66
2018-09-09T06:36:33.194Z,57.97
2018-09-09T06:41:37.348Z,57.47
2018-09-09T06:46:46.839Z,57.55
2018-09-09T06:51:52.572Z,56.42
2018-09-09T06:56:55.703Z,54.95
2018-09-09T07:01:58.740Z,54.42
2018-09-09T07:07:01.760Z,52.71
2018-09-09T07:12:06.184Z,51.99
2018-09-09T07:17:10.431Z,51.46
2018-09-09T07:22:15.093Z,52.34
2018-09-09T07:27:19.429Z,51.92
2018-09-09T07:32:22.624Z,50.55
2018-09-09T07:37:25.743Z,49.96
2018-09-09T07:42:29.898Z,50.24
2018-09-09T07:47:33.962Z,50.46
2018-09-09T07:52:37.130Z,50.96
2018-09-09T07:57:42.903Z,49.97
2018-09-09T08:02:48.548Z,49.06
2018-09-09T08:07:53.493Z,49.13
2018-09-09T08:12:56.589Z,48.32
2018-09-09T08:17:59.580Z,48.12
2018-09-09T08:23:02.650Z,47.80
2018-09-09T08:28:05.711Z,46.86
2018-09-09T08:33:08.736Z,46.67
2018-09-09T08:38:15.907Z,46.17
2018-09-09T08:43:20.765Z,46.54
2018-09-09T08:48:24.422Z,46.00
2018-09-09T08:53:27.429Z,45.15
2018-09-09T08:58:30.488Z,45.32
2018-09-09T09:03:34.530Z,44.43
2018-09-09T09:08:37.682Z,44.77
2018-09-09T09:13:47.013Z,44.37
2018-09-09T09:18:51.065Z,44.29
2018-09-09T09:23:54.074Z,43.45
2018-09-09T09:28:57.105Z,43.44
2018-09-09T09:34:00.147Z,43.96
2018-09-09T09:39:06.494Z,43.64
2018-09-09T09:44:15.264Z,43.74
2018-09-09T09:49:20.200Z,43.40
2018-09-09T09:54:24.123Z,42.96
2018-09-09T09:59:27.146Z,43.44
2018-09-09T10:04:30.162Z,44.05
2018-09-09T10:09:33.212Z,44.06
2018-09-09T10:14:37.098Z,43.23
2018-09-09T10:19:44.902Z,43.77
2018-09-09T10:24:50.321Z,43.21
2018-09-09T10:29:54.970Z,42.30
2018-09-09T10:35:04.437Z,41.69
2018-09-09T10:40:07.679Z,41.35
2018-09-09T10:45:10.713Z,41.31
2018-09-09T10:50:13.781Z,42.81
2018-09-09T10:55:16.834Z,42.58
2018-09-09T11:00:21.339Z,42.47
2018-09-09T11:05:24.733Z,41.96
2018-09-09T11:10:27.872Z,41.95
2018-09-09T11:15:30.904Z,42.40
2018-09-09T11:20:33.999Z,42.30
2018-09-09T11:25:38.686Z,42.54
2018-09-09T11:30:47.050Z,40.91
2018-09-09T11:35:50.859Z,41.41
2018-09-09T11:40:55.119Z,41.19
2018-09-09T11:45:58.584Z,40.79
2018-09-09T11:51:02.047Z,41.22
2018-09-09T11:56:05.473Z,40.57
2018-09-09T12:01:08.620Z,40.80
2018-09-09T12:06:11.675Z,40.79
2018-09-09T12:11:16.494Z,40.77
2018-09-09T12:16:24.994Z,40.36
2018-09-09T12:21:29.471Z,39.99
2018-09-09T12:26:32.534Z,39.27
2018-09-09T12:31:35.585Z,38.06
2018-09-09T12:36:38.644Z,37.09
2018-09-09T12:41:41.634Z,37.87
2018-09-09T12:46:52.599Z,37.00
2018-09-09T12:51:56.735Z,36.57
2018-09-09T12:57:01.443Z,36.54
2018-09-09T13:02:04.618Z,35.92
2018-09-09T13:07:07.724Z,34.51
2018-09-09T13:12:10.783Z,35.33
2018-09-09T13:17:13.819Z,36.53
2018-09-09T13:22:17.631Z,36.12
2018-09-09T13:27:22.868Z,36.08
2018-09-09T13:32:28.686Z,36.18
2018-09-09T13:37:32.208Z,36.16
2018-09-09T13:42:37.445Z,36.80
2018-09-09T13:47:41.414Z,36.21
2018-09-09T13:52:45.395Z,36.34
2018-09-09T13:57:49.216Z,36.36
2018-09-09T14:02:52.433Z,35.44
2018-09-09T14:07:55.478Z,35.77
2018-09-09T14:12:58.660Z,35.34
2018-09-09T14:18:01.694Z,35.86
2018-09-09T14:23:09.966Z,35.25
2018-09-09T14:28:14.596Z,35.38
2018-09-09T14:33:18.170Z,35.25
2018-09-09T14:38:21.362Z,35.15
2018-09-09T14:43:24.423Z,35.24
2018-09-09T14:48:27.489Z,35.61
2018-09-09T14:53:32.113Z,34.98
2018-09-09T14:58:42.749Z,35.22
2018-09-09T15:03:47.313Z,35.00
2018-09-09T15:08:50.469Z,34.39
2018-09-09T15:13:53.569Z,35.25
2018-09-09T15:18:56.616Z,35.81
2018-09-09T15:24:00.034Z,35.30
2018-09-09T15:29:07.360Z,35.50
2018-09-09T15:34:11.877Z,35.73
2018-09-09T15:39:17.081Z,36.39
2018-09-09T15:44:20.355Z,35.93
2018-09-09T15:49:23.415Z,35.97
2018-09-09T15:54:26.632Z,36.15
2018-09-09T15:59:29.887Z,35.90
2018-09-09T16:04:32.920Z,35.95
2018-09-09T16:09:41.916Z,35.87
2018-09-09T16:14:45.379Z,35.66
2018-09-09T16:19:49.010Z,35.41
2018-09-09T16:24:52.068Z,35.52
2018-09-09T16:29:55.110Z,35.24
2018-09-09T16:34:58.157Z,36.07
2018-09-09T16:40:02.900Z,36.19
2018-09-09T16:45:12.877Z,37.29
2018-09-09T16:50:18.285Z,38.27
2018-09-09T16:55:21.314Z,38.92
2018-09-09T17:00:24.350Z,39.08
2018-09-09T17:05:29.332Z,39.72
2018-09-09T17:10:35.772Z,39.90
2018-09-09T17:15:42.598Z,39.98
2018-09-09T17:20:45.624Z,39.77
2018-09-09T17:25:49.953Z,39.55
2018-09-09T17:30:52.973Z,40.28
2018-09-09T17:35:56.347Z,40.38
2018-09-09T17:40:59.378Z,41.22
2018-09-09T17:46:02.538Z,41.94
2018-09-09T17:51:09.756Z,42.55
2018-09-09T17:56:14.321Z,42.73
2018-09-09T18:01:19.551Z,42.82
2018-09-09T18:06:22.929Z,43.45
2018-09-09T18:11:26.251Z,43.97
2018-09-09T18:16:29.251Z,44.08
2018-09-09T18:21:32.258Z,44.35
2018-09-09T18:26:36.741Z,44.80
2018-09-09T18:31:42.310Z,45.31
2018-09-09T18:36:46.092Z,45.66
2018-09-09T18:41:49.506Z,46.16
2018-09-09T18:46:53.333Z,45.47
2018-09-09T18:51:56.334Z,46.66
2018-09-09T18:56:59.338Z,47.36
2018-09-09T19:02:02.362Z,47.76
2018-09-09T19:07:06.822Z,48.41
2018-09-09T19:12:12.153Z,49.02
2018-09-09T19:17:16.006Z,49.74
2018-09-09T19:22:19.105Z,50.08
2018-09-09T19:27:22.145Z,51.07
2018-09-09T19:32:25.385Z,50.89
2018-09-09T19:37:28.508Z,51.04
2018-09-09T19:42:36.940Z,51.93
2018-09-09T19:47:41.959Z,52.03
2018-09-09T19:52:45.503Z,52.62
2018-09-09T19:57:48.552Z,52.89
2018-09-09T20:02:51.667Z,52.38
2018-09-09T20:07:54.714Z,52.31
2018-09-09T20:12:57.708Z,52.41
2018-09-09T20:18:00.750Z,52.31
2018-09-09T20:23:03.822Z,53.15
2018-09-09T20:28:09.776Z,52.99
2018-09-09T20:33:13.921Z,53.42
2018-09-09T20:38:17.086Z,54.36
2018-09-09T20:43:20.165Z,54.78
2018-09-09T20:48:23.202Z,55.02
2018-09-09T20:53:26.582Z,55.19
2018-09-09T20:58:29.647Z,55.43
2018-09-09T21:03:32.734Z,55.08
2018-09-09T21:08:40.326Z,55.19
2018-09-09T21:13:44.473Z,56.04
2018-09-09T21:18:48.569Z,56.81
2018-09-09T21:23:51.619Z,57.64
2018-09-09T21:28:54.726Z,57.30
2018-09-09T21:33:58.607Z,57.02
2018-09-09T21:39:02.771Z,56.97
2018-09-09T21:44:08.117Z,56.93
2018-09-09T21:49:14.637Z,56.72
2018-09-09T21:54:18.979Z,56.87
2018-09-09T21:59:22.088Z,56.87
2018-09-09T22:04:25.114Z,57.11
2018-09-09T22:09:28.161Z,57.67
2018-09-09T22:14:31.177Z,57.11
2018-09-09T22:19:34.216Z,57.49
2018-09-09T22:24:41.050Z,57.67
2018-09-09T22:29:45.409Z,57.81
2018-09-09T22:34:49.196Z,58.06
2018-09-09T22:39:52.258Z,58.00
2018-09-09T22:44:55.313Z,58.07
2018-09-09T22:49:58.386Z,58.10
2018-09-09T22:55:01.426Z,59.04
2018-09-09T23:00:12.720Z,59.12
2018-09-09T23:05:16.917Z,58.87
2018-09-09T23:10:19.986Z,58.97
2018-09-09T23:15:26.428Z,58.85
2018-09-09T23:20:29.523Z,59.18
2018-09-09T23:25:32.569Z,59.29
2018-09-09T23:30:40.307Z,59.75
2018-09-09T23:35:44.440Z,59.96
2018-09-09T23:40:48.742Z,59.75
2018-09-09T23:45:51.779Z,59.91
2018-09-09T23:50:54.800Z,59.58
2018-09-09T23:55:57.887Z,59.73
